sensor_id;sensor_type;location;lat;lon;timestamp;temperature;humidity
652;DHT22;310;48.490;9.200;2023-07-08T00:02:13;27.80;11.90
652;DHT22;310;48.490;9.200;2023-07-08T00:04:39;27.80;12.10
652;DHT22;310;48.490;9.200;2023-07-08T00:07:09;27.60;11.80
652;DHT22;310;48.490;9.200;2023-07-08T00:09:35;27.70;12.20
652;DHT22;310;48.490;9.200;2023-07-08T00:12:01;27.60;11.90
652;DHT22;310;48.490;9.200;2023-07-08T00:14:27;27.60;11.80
652;DHT22;310;48.490;9.200;2023-07-08T00:16:52;27.70;11.70
652;DHT22;310;48.490;9.200;2023-07-08T00:19:18;27.40;12.40
652;DHT22;310;48.490;9.200;2023-07-08T00:21:45;27.30;12.10
652;DHT22;310;48.490;9.200;2023-07-08T00:24:11;27.40;12.00
652;DHT22;310;48.490;9.200;2023-07-08T00:26:37;27.30;12.30
652;DHT22;310;48.490;9.200;2023-07-08T00:29:05;27.20;12.50
652;DHT22;310;48.490;9.200;2023-07-08T00:31:33;27.20;12.40
652;DHT22;310;48.490;9.200;2023-07-08T00:33:59;26.90;13.20
652;DHT22;310;48.490;9.200;2023-07-08T00:36:26;26.90;13.00
652;DHT22;310;48.490;9.200;2023-07-08T00:38:52;26.80;12.80
652;DHT22;310;48.490;9.200;2023-07-08T00:43:48;26.60;12.90
652;DHT22;310;48.490;9.200;2023-07-08T00:49:36;26.80;13.00
652;DHT22;310;48.490;9.200;2023-07-08T00:52:24;26.60;13.40
652;DHT22;310;48.490;9.200;2023-07-08T00:54:52;26.40;13.40
652;DHT22;310;48.490;9.200;2023-07-08T00:57:18;26.40;13.80
652;DHT22;310;48.490;9.200;2023-07-08T00:59:49;26.50;13.60
652;DHT22;310;48.490;9.200;2023-07-08T01:02:18;26.60;13.20
652;DHT22;310;48.490;9.200;2023-07-08T01:05:22;26.50;13.00
652;DHT22;310;48.490;9.200;2023-07-08T01:07:53;26.50;13.30
652;DHT22;310;48.490;9.200;2023-07-08T01:10:26;26.30;13.30
652;DHT22;310;48.490;9.200;2023-07-08T01:12:56;26.30;13.80
652;DHT22;310;48.490;9.200;2023-07-08T01:15:24;26.30;13.90
652;DHT22;310;48.490;9.200;2023-07-08T01:17:51;26.40;14.00
652;DHT22;310;48.490;9.200;2023-07-08T01:20:19;26.40;14.20
652;DHT22;310;48.490;9.200;2023-07-08T01:22:45;26.40;13.90
652;DHT22;310;48.490;9.200;2023-07-08T01:25:12;26.60;13.70
652;DHT22;310;48.490;9.200;2023-07-08T01:27:42;26.50;13.60
652;DHT22;310;48.490;9.200;2023-07-08T01:30:10;26.50;13.40
652;DHT22;310;48.490;9.200;2023-07-08T01:32:43;26.40;13.90
652;DHT22;310;48.490;9.200;2023-07-08T01:35:11;26.30;14.10
652;DHT22;310;48.490;9.200;2023-07-08T01:37:40;26.50;13.40
652;DHT22;310;48.490;9.200;2023-07-08T01:42:45;26.60;14.20
652;DHT22;310;48.490;9.200;2023-07-08T01:45:17;26.30;14.10
652;DHT22;310;48.490;9.200;2023-07-08T01:47:48;26.10;14.30
652;DHT22;310;48.490;9.200;2023-07-08T01:50:14;26.10;14.30
652;DHT22;310;48.490;9.200;2023-07-08T01:52:40;26.10;14.80
652;DHT22;310;48.490;9.200;2023-07-08T01:55:06;26.20;15.00
652;DHT22;310;48.490;9.200;2023-07-08T01:57:31;25.90;14.80
652;DHT22;310;48.490;9.200;2023-07-08T01:59:57;26.10;14.60
652;DHT22;310;48.490;9.200;2023-07-08T02:02:22;26.20;15.30
652;DHT22;310;48.490;9.200;2023-07-08T02:04:49;26.40;14.80
652;DHT22;310;48.490;9.200;2023-07-08T02:07:15;26.40;14.40
652;DHT22;310;48.490;9.200;2023-07-08T02:09:41;26.40;14.60
652;DHT22;310;48.490;9.200;2023-07-08T02:12:06;26.40;14.50
652;DHT22;310;48.490;9.200;2023-07-08T02:14:32;26.40;15.20
652;DHT22;310;48.490;9.200;2023-07-08T02:16:58;26.30;14.40
652;DHT22;310;48.490;9.200;2023-07-08T02:19:24;26.50;14.30
652;DHT22;310;48.490;9.200;2023-07-08T02:21:49;26.50;13.90
652;DHT22;310;48.490;9.200;2023-07-08T02:24:17;26.70;13.90
652;DHT22;310;48.490;9.200;2023-07-08T02:26:42;26.60;14.00
652;DHT22;310;48.490;9.200;2023-07-08T02:29:08;26.60;14.20
652;DHT22;310;48.490;9.200;2023-07-08T02:31:34;26.40;14.40
652;DHT22;310;48.490;9.200;2023-07-08T02:33:59;26.50;13.90
652;DHT22;310;48.490;9.200;2023-07-08T02:36:27;26.60;15.10
652;DHT22;310;48.490;9.200;2023-07-08T02:38:53;26.50;17.30
652;DHT22;310;48.490;9.200;2023-07-08T02:41:18;26.90;14.50
652;DHT22;310;48.490;9.200;2023-07-08T02:43:44;26.50;14.20
652;DHT22;310;48.490;9.200;2023-07-08T02:46:10;26.40;15.60
652;DHT22;310;48.490;9.200;2023-07-08T02:48:35;26.50;16.90
652;DHT22;310;48.490;9.200;2023-07-08T02:51:02;26.70;14.80
652;DHT22;310;48.490;9.200;2023-07-08T02:53:28;26.50;16.60
652;DHT22;310;48.490;9.200;2023-07-08T02:55:54;26.30;17.70
652;DHT22;310;48.490;9.200;2023-07-08T02:58:20;26.20;18.90
652;DHT22;310;48.490;9.200;2023-07-08T03:00:50;26.20;16.50
652;DHT22;310;48.490;9.200;2023-07-08T03:03:16;26.30;16.20
652;DHT22;310;48.490;9.200;2023-07-08T03:05:42;26.10;16.90
652;DHT22;310;48.490;9.200;2023-07-08T03:08:07;26.00;18.10
652;DHT22;310;48.490;9.200;2023-07-08T03:10:33;25.70;19.10
652;DHT22;310;48.490;9.200;2023-07-08T03:12:58;25.80;17.80
652;DHT22;310;48.490;9.200;2023-07-08T03:15:24;25.80;18.50
652;DHT22;310;48.490;9.200;2023-07-08T03:17:49;25.70;18.80
652;DHT22;310;48.490;9.200;2023-07-08T03:20:15;25.40;18.00
652;DHT22;310;48.490;9.200;2023-07-08T03:22:41;25.00;19.50
652;DHT22;310;48.490;9.200;2023-07-08T03:25:06;25.10;18.80
652;DHT22;310;48.490;9.200;2023-07-08T03:27:32;25.20;18.10
652;DHT22;310;48.490;9.200;2023-07-08T03:29:58;25.30;19.40
652;DHT22;310;48.490;9.200;2023-07-08T03:32:23;25.40;18.80
652;DHT22;310;48.490;9.200;2023-07-08T03:34:50;25.40;19.20
652;DHT22;310;48.490;9.200;2023-07-08T03:37:16;25.50;18.10
652;DHT22;310;48.490;9.200;2023-07-08T03:39:42;25.60;17.60
652;DHT22;310;48.490;9.200;2023-07-08T03:42:09;25.80;17.30
652;DHT22;310;48.490;9.200;2023-07-08T03:44:34;25.80;18.10
652;DHT22;310;48.490;9.200;2023-07-08T03:47:00;25.90;18.90
652;DHT22;310;48.490;9.200;2023-07-08T03:49:26;25.80;18.80
652;DHT22;310;48.490;9.200;2023-07-08T03:51:53;25.60;20.00
652;DHT22;310;48.490;9.200;2023-07-08T03:54:23;25.30;17.90
652;DHT22;310;48.490;9.200;2023-07-08T03:56:49;24.70;19.50
652;DHT22;310;48.490;9.200;2023-07-08T03:59:15;25.40;18.70
652;DHT22;310;48.490;9.200;2023-07-08T04:01:40;25.80;19.60
652;DHT22;310;48.490;9.200;2023-07-08T04:04:08;25.80;18.20
652;DHT22;310;48.490;9.200;2023-07-08T04:06:34;25.50;18.70
652;DHT22;310;48.490;9.200;2023-07-08T04:09:00;25.40;18.40
652;DHT22;310;48.490;9.200;2023-07-08T04:11:26;25.50;18.10
652;DHT22;310;48.490;9.200;2023-07-08T04:13:51;25.30;18.30
652;DHT22;310;48.490;9.200;2023-07-08T04:16:23;25.30;18.30
652;DHT22;310;48.490;9.200;2023-07-08T04:18:49;25.40;17.90
652;DHT22;310;48.490;9.200;2023-07-08T04:21:17;25.60;17.80
652;DHT22;310;48.490;9.200;2023-07-08T04:23:43;26.00;18.40
652;DHT22;310;48.490;9.200;2023-07-08T04:26:09;26.10;17.60
652;DHT22;310;48.490;9.200;2023-07-08T04:28:34;26.00;17.60
652;DHT22;310;48.490;9.200;2023-07-08T04:31:00;25.80;19.40
652;DHT22;310;48.490;9.200;2023-07-08T04:33:26;25.50;19.60
652;DHT22;310;48.490;9.200;2023-07-08T04:35:52;24.80;20.70
652;DHT22;310;48.490;9.200;2023-07-08T04:38:21;24.40;22.60
652;DHT22;310;48.490;9.200;2023-07-08T04:40:48;24.70;23.00
652;DHT22;310;48.490;9.200;2023-07-08T04:43:14;24.30;22.30
652;DHT22;310;48.490;9.200;2023-07-08T04:45:41;23.50;23.90
652;DHT22;310;48.490;9.200;2023-07-08T04:48:12;23.70;23.50
652;DHT22;310;48.490;9.200;2023-07-08T04:50:42;23.90;24.00
652;DHT22;310;48.490;9.200;2023-07-08T04:53:08;24.20;23.50
652;DHT22;310;48.490;9.200;2023-07-08T04:55:39;24.10;23.10
652;DHT22;310;48.490;9.200;2023-07-08T04:58:07;24.30;23.00
652;DHT22;310;48.490;9.200;2023-07-08T05:00:32;24.30;21.60
652;DHT22;310;48.490;9.200;2023-07-08T05:02:58;23.50;23.20
652;DHT22;310;48.490;9.200;2023-07-08T05:05:23;23.50;23.60
652;DHT22;310;48.490;9.200;2023-07-08T05:07:49;23.30;23.40
652;DHT22;310;48.490;9.200;2023-07-08T05:10:15;23.10;24.40
652;DHT22;310;48.490;9.200;2023-07-08T05:12:41;23.50;23.60
652;DHT22;310;48.490;9.200;2023-07-08T05:15:07;23.80;23.40
652;DHT22;310;48.490;9.200;2023-07-08T05:17:33;23.90;23.10
652;DHT22;310;48.490;9.200;2023-07-08T05:19:58;23.90;23.50
652;DHT22;310;48.490;9.200;2023-07-08T05:22:26;24.60;24.30
652;DHT22;310;48.490;9.200;2023-07-08T05:24:52;24.80;22.60
652;DHT22;310;48.490;9.200;2023-07-08T05:27:21;24.50;23.30
652;DHT22;310;48.490;9.200;2023-07-08T05:29:47;24.10;23.20
652;DHT22;310;48.490;9.200;2023-07-08T05:32:13;24.50;23.30
652;DHT22;310;48.490;9.200;2023-07-08T05:34:39;24.30;23.00
652;DHT22;310;48.490;9.200;2023-07-08T05:37:04;24.40;23.30
652;DHT22;310;48.490;9.200;2023-07-08T05:39:31;24.80;24.30
652;DHT22;310;48.490;9.200;2023-07-08T05:41:56;24.60;23.00
652;DHT22;310;48.490;9.200;2023-07-08T05:44:22;25.00;22.60
652;DHT22;310;48.490;9.200;2023-07-08T05:46:49;25.20;22.30
652;DHT22;310;48.490;9.200;2023-07-08T05:49:15;25.40;24.90
652;DHT22;310;48.490;9.200;2023-07-08T05:51:41;25.40;22.50
652;DHT22;310;48.490;9.200;2023-07-08T05:54:06;25.60;24.50
652;DHT22;310;48.490;9.200;2023-07-08T05:56:32;25.70;23.60
652;DHT22;310;48.490;9.200;2023-07-08T05:58:58;25.80;24.90
652;DHT22;310;48.490;9.200;2023-07-08T06:01:23;25.80;24.30
652;DHT22;310;48.490;9.200;2023-07-08T06:03:49;25.90;25.10
652;DHT22;310;48.490;9.200;2023-07-08T06:06:15;26.00;25.50
652;DHT22;310;48.490;9.200;2023-07-08T06:08:41;26.10;24.90
652;DHT22;310;48.490;9.200;2023-07-08T06:11:06;26.00;23.30
652;DHT22;310;48.490;9.200;2023-07-08T06:13:32;26.10;25.30
652;DHT22;310;48.490;9.200;2023-07-08T06:15:58;26.10;24.20
652;DHT22;310;48.490;9.200;2023-07-08T06:18:23;26.10;24.30
652;DHT22;310;48.490;9.200;2023-07-08T06:20:56;26.10;23.70
652;DHT22;310;48.490;9.200;2023-07-08T06:23:23;26.20;25.70
652;DHT22;310;48.490;9.200;2023-07-08T06:25:49;26.20;24.00
652;DHT22;310;48.490;9.200;2023-07-08T06:28:15;26.30;23.30
652;DHT22;310;48.490;9.200;2023-07-08T06:30:40;26.40;24.80
652;DHT22;310;48.490;9.200;2023-07-08T06:33:06;26.30;24.40
652;DHT22;310;48.490;9.200;2023-07-08T06:35:32;26.30;24.60
652;DHT22;310;48.490;9.200;2023-07-08T06:37:58;26.10;25.40
652;DHT22;310;48.490;9.200;2023-07-08T06:40:24;26.20;24.90
652;DHT22;310;48.490;9.200;2023-07-08T06:42:49;25.90;22.70
652;DHT22;310;48.490;9.200;2023-07-08T06:45:15;25.50;23.40
652;DHT22;310;48.490;9.200;2023-07-08T06:47:40;25.50;23.20
652;DHT22;310;48.490;9.200;2023-07-08T06:50:06;25.40;23.20
652;DHT22;310;48.490;9.200;2023-07-08T06:52:32;25.60;22.50
652;DHT22;310;48.490;9.200;2023-07-08T06:55:00;25.30;22.90
652;DHT22;310;48.490;9.200;2023-07-08T06:57:26;25.40;23.00
652;DHT22;310;48.490;9.200;2023-07-08T06:59:52;25.60;23.10
652;DHT22;310;48.490;9.200;2023-07-08T07:02:17;26.10;23.40
652;DHT22;310;48.490;9.200;2023-07-08T07:04:43;26.30;24.00
652;DHT22;310;48.490;9.200;2023-07-08T07:07:09;26.80;23.80
652;DHT22;310;48.490;9.200;2023-07-08T07:09:35;26.80;23.10
652;DHT22;310;48.490;9.200;2023-07-08T07:12:01;27.00;23.10
652;DHT22;310;48.490;9.200;2023-07-08T07:14:26;27.10;22.80
652;DHT22;310;48.490;9.200;2023-07-08T07:16:52;27.10;22.90
652;DHT22;310;48.490;9.200;2023-07-08T07:19:18;27.30;22.10
652;DHT22;310;48.490;9.200;2023-07-08T07:21:43;27.20;22.10
652;DHT22;310;48.490;9.200;2023-07-08T07:24:09;27.40;23.30
652;DHT22;310;48.490;9.200;2023-07-08T07:26:35;27.70;21.30
652;DHT22;310;48.490;9.200;2023-07-08T07:29:02;27.80;20.20
652;DHT22;310;48.490;9.200;2023-07-08T07:31:28;27.90;20.80
652;DHT22;310;48.490;9.200;2023-07-08T07:33:53;27.80;19.90
652;DHT22;310;48.490;9.200;2023-07-08T07:36:19;27.70;20.60
652;DHT22;310;48.490;9.200;2023-07-08T07:38:45;27.70;20.40
652;DHT22;310;48.490;9.200;2023-07-08T07:41:11;28.00;20.30
652;DHT22;310;48.490;9.200;2023-07-08T07:43:38;28.20;19.80
652;DHT22;310;48.490;9.200;2023-07-08T07:46:04;27.80;20.40
652;DHT22;310;48.490;9.200;2023-07-08T07:48:31;27.60;21.00
652;DHT22;310;48.490;9.200;2023-07-08T07:50:57;27.20;21.60
652;DHT22;310;48.490;9.200;2023-07-08T07:53:23;27.20;20.90
652;DHT22;310;48.490;9.200;2023-07-08T07:55:55;26.80;21.90
652;DHT22;310;48.490;9.200;2023-07-08T07:58:20;26.70;22.10
652;DHT22;310;48.490;9.200;2023-07-08T08:00:46;26.60;22.80
652;DHT22;310;48.490;9.200;2023-07-08T08:03:12;26.70;23.10
652;DHT22;310;48.490;9.200;2023-07-08T08:05:37;27.30;21.90
652;DHT22;310;48.490;9.200;2023-07-08T08:08:03;27.10;22.70
652;DHT22;310;48.490;9.200;2023-07-08T08:10:29;27.60;22.40
652;DHT22;310;48.490;9.200;2023-07-08T08:12:55;27.90;22.40
652;DHT22;310;48.490;9.200;2023-07-08T08:15:22;27.30;21.00
652;DHT22;310;48.490;9.200;2023-07-08T08:17:48;27.10;21.50
652;DHT22;310;48.490;9.200;2023-07-08T08:20:14;27.20;21.20
652;DHT22;310;48.490;9.200;2023-07-08T08:22:40;27.40;20.90
652;DHT22;310;48.490;9.200;2023-07-08T08:25:06;26.60;22.50
652;DHT22;310;48.490;9.200;2023-07-08T08:27:32;26.70;22.80
652;DHT22;310;48.490;9.200;2023-07-08T08:29:57;26.80;22.00
652;DHT22;310;48.490;9.200;2023-07-08T08:32:23;26.90;22.20
652;DHT22;310;48.490;9.200;2023-07-08T08:34:48;27.40;21.80
652;DHT22;310;48.490;9.200;2023-07-08T08:37:14;27.50;21.40
652;DHT22;310;48.490;9.200;2023-07-08T08:39:39;27.00;22.90
652;DHT22;310;48.490;9.200;2023-07-08T08:42:26;26.70;23.70
652;DHT22;310;48.490;9.200;2023-07-08T08:44:52;26.90;23.80
652;DHT22;310;48.490;9.200;2023-07-08T08:52:45;27.20;22.90
652;DHT22;310;48.490;9.200;2023-07-08T08:55:12;26.90;22.50
652;DHT22;310;48.490;9.200;2023-07-08T08:57:45;26.60;23.30
652;DHT22;310;48.490;9.200;2023-07-08T09:00:19;26.50;23.30
652;DHT22;310;48.490;9.200;2023-07-08T09:05:13;27.00;23.90
652;DHT22;310;48.490;9.200;2023-07-08T09:08:31;27.40;24.60
652;DHT22;310;48.490;9.200;2023-07-08T09:13:29;28.10;22.30
652;DHT22;310;48.490;9.200;2023-07-08T09:16:05;28.10;22.30
652;DHT22;310;48.490;9.200;2023-07-08T09:18:36;28.20;23.10
652;DHT22;310;48.490;9.200;2023-07-08T09:21:17;28.30;22.90
652;DHT22;310;48.490;9.200;2023-07-08T09:23:48;28.30;22.80
652;DHT22;310;48.490;9.200;2023-07-08T09:26:19;28.40;22.80
652;DHT22;310;48.490;9.200;2023-07-08T09:28:47;28.40;22.40
652;DHT22;310;48.490;9.200;2023-07-08T09:33:47;28.40;21.90
652;DHT22;310;48.490;9.200;2023-07-08T09:36:21;28.40;21.80
652;DHT22;310;48.490;9.200;2023-07-08T09:38:48;28.70;21.90
652;DHT22;310;48.490;9.200;2023-07-08T09:41:33;28.80;21.50
652;DHT22;310;48.490;9.200;2023-07-08T09:44:05;28.70;22.60
652;DHT22;310;48.490;9.200;2023-07-08T09:46:36;28.80;21.30
652;DHT22;310;48.490;9.200;2023-07-08T09:51:48;29.00;21.70
652;DHT22;310;48.490;9.200;2023-07-08T09:54:17;28.80;21.10
652;DHT22;310;48.490;9.200;2023-07-08T09:56:44;28.90;22.10
652;DHT22;310;48.490;9.200;2023-07-08T09:59:14;29.20;22.10
652;DHT22;310;48.490;9.200;2023-07-08T10:01:41;29.20;20.70
652;DHT22;310;48.490;9.200;2023-07-08T10:04:07;29.00;21.60
652;DHT22;310;48.490;9.200;2023-07-08T10:06:34;29.30;21.40
652;DHT22;310;48.490;9.200;2023-07-08T10:09:08;29.40;21.70
652;DHT22;310;48.490;9.200;2023-07-08T10:11:46;29.10;21.40
652;DHT22;310;48.490;9.200;2023-07-08T10:15:07;28.70;21.70
652;DHT22;310;48.490;9.200;2023-07-08T10:17:24;29.00;21.60
652;DHT22;310;48.490;9.200;2023-07-08T10:19:49;29.10;21.60
652;DHT22;310;48.490;9.200;2023-07-08T10:22:36;29.20;20.50
652;DHT22;310;48.490;9.200;2023-07-08T10:36:30;29.90;19.50
652;DHT22;310;48.490;9.200;2023-07-08T10:39:25;30.40;19.40
652;DHT22;310;48.490;9.200;2023-07-08T10:53:09;31.60;16.60
652;DHT22;310;48.490;9.200;2023-07-08T10:56:11;31.80;16.50
652;DHT22;310;48.490;9.200;2023-07-08T11:01:32;32.10;15.30
652;DHT22;310;48.490;9.200;2023-07-08T11:10:00;32.20;16.00
652;DHT22;310;48.490;9.200;2023-07-08T11:12:38;32.60;16.50
652;DHT22;310;48.490;9.200;2023-07-08T11:17:59;32.60;15.40
652;DHT22;310;48.490;9.200;2023-07-08T11:20:43;32.70;16.20
652;DHT22;310;48.490;9.200;2023-07-08T11:26:23;33.10;15.50
652;DHT22;310;48.490;9.200;2023-07-08T11:28:53;33.20;15.40
652;DHT22;310;48.490;9.200;2023-07-08T11:31:20;33.80;13.90
652;DHT22;310;48.490;9.200;2023-07-08T11:33:46;32.80;14.50
652;DHT22;310;48.490;9.200;2023-07-08T11:36:13;33.50;15.50
652;DHT22;310;48.490;9.200;2023-07-08T11:38:54;34.40;12.50
652;DHT22;310;48.490;9.200;2023-07-08T11:41:22;34.30;13.80
652;DHT22;310;48.490;9.200;2023-07-08T11:43:58;35.60;11.60
652;DHT22;310;48.490;9.200;2023-07-08T11:46:27;36.00;10.90
652;DHT22;310;48.490;9.200;2023-07-08T11:49:14;37.40;10.30
652;DHT22;310;48.490;9.200;2023-07-08T11:51:44;36.80;9.50
652;DHT22;310;48.490;9.200;2023-07-08T11:54:28;37.90;9.90
652;DHT22;310;48.490;9.200;2023-07-08T11:56:58;38.70;9.10
652;DHT22;310;48.490;9.200;2023-07-08T11:59:33;38.40;8.10
652;DHT22;310;48.490;9.200;2023-07-08T12:02:12;39.40;7.40
652;DHT22;310;48.490;9.200;2023-07-08T12:04:58;40.00;7.30
652;DHT22;310;48.490;9.200;2023-07-08T12:07:54;39.50;8.20
652;DHT22;310;48.490;9.200;2023-07-08T12:10:47;38.80;8.30
652;DHT22;310;48.490;9.200;2023-07-08T12:13:16;39.00;8.10
652;DHT22;310;48.490;9.200;2023-07-08T12:15:42;39.10;8.00
652;DHT22;310;48.490;9.200;2023-07-08T12:20:37;39.10;7.00
652;DHT22;310;48.490;9.200;2023-07-08T12:23:13;38.70;6.70
652;DHT22;310;48.490;9.200;2023-07-08T12:25:39;36.80;9.60
652;DHT22;310;48.490;9.200;2023-07-08T12:28:04;37.60;8.60
652;DHT22;310;48.490;9.200;2023-07-08T12:30:31;37.80;8.20
652;DHT22;310;48.490;9.200;2023-07-08T12:32:59;38.40;8.30
652;DHT22;310;48.490;9.200;2023-07-08T12:35:28;37.10;8.80
652;DHT22;310;48.490;9.200;2023-07-08T12:37:58;36.40;9.80
652;DHT22;310;48.490;9.200;2023-07-08T12:40:26;37.20;9.10
652;DHT22;310;48.490;9.200;2023-07-08T12:42:53;37.50;8.50
652;DHT22;310;48.490;9.200;2023-07-08T12:45:20;37.20;9.20
652;DHT22;310;48.490;9.200;2023-07-08T12:47:47;37.60;10.20
652;DHT22;310;48.490;9.200;2023-07-08T12:50:13;38.30;7.50
652;DHT22;310;48.490;9.200;2023-07-08T12:52:39;39.30;7.40
652;DHT22;310;48.490;9.200;2023-07-08T12:55:08;40.60;7.90
652;DHT22;310;48.490;9.200;2023-07-08T12:57:34;41.20;5.40
652;DHT22;310;48.490;9.200;2023-07-08T13:00:00;40.70;5.90
652;DHT22;310;48.490;9.200;2023-07-08T13:02:27;39.10;6.60
652;DHT22;310;48.490;9.200;2023-07-08T13:04:59;38.80;6.60
652;DHT22;310;48.490;9.200;2023-07-08T13:07:35;37.80;7.80
652;DHT22;310;48.490;9.200;2023-07-08T13:10:03;37.40;9.60
652;DHT22;310;48.490;9.200;2023-07-08T13:12:31;36.30;9.90
652;DHT22;310;48.490;9.200;2023-07-08T13:14:59;36.30;9.20
652;DHT22;310;48.490;9.200;2023-07-08T13:17:25;36.10;9.70
652;DHT22;310;48.490;9.200;2023-07-08T13:19:51;36.10;10.10
652;DHT22;310;48.490;9.200;2023-07-08T13:22:19;35.90;9.30
652;DHT22;310;48.490;9.200;2023-07-08T13:24:46;35.60;9.80
652;DHT22;310;48.490;9.200;2023-07-08T13:27:22;35.80;9.40
652;DHT22;310;48.490;9.200;2023-07-08T13:29:48;35.30;9.40
652;DHT22;310;48.490;9.200;2023-07-08T13:32:16;35.00;11.70
652;DHT22;310;48.490;9.200;2023-07-08T13:34:41;35.00;10.60
652;DHT22;310;48.490;9.200;2023-07-08T13:37:13;34.50;10.70
652;DHT22;310;48.490;9.200;2023-07-08T13:39:43;34.00;11.40
652;DHT22;310;48.490;9.200;2023-07-08T13:42:09;33.00;11.80
652;DHT22;310;48.490;9.200;2023-07-08T13:44:42;33.00;11.80
652;DHT22;310;48.490;9.200;2023-07-08T13:47:27;33.90;10.20
652;DHT22;310;48.490;9.200;2023-07-08T13:50:04;33.90;10.20
652;DHT22;310;48.490;9.200;2023-07-08T13:52:30;34.10;11.40
652;DHT22;310;48.490;9.200;2023-07-08T13:55:01;35.30;9.90
652;DHT22;310;48.490;9.200;2023-07-08T13:57:37;35.70;9.10
652;DHT22;310;48.490;9.200;2023-07-08T14:00:05;36.20;8.20
652;DHT22;310;48.490;9.200;2023-07-08T14:02:32;36.10;9.60
652;DHT22;310;48.490;9.200;2023-07-08T14:05:00;35.90;8.70
652;DHT22;310;48.490;9.200;2023-07-08T14:07:28;35.90;7.40
652;DHT22;310;48.490;9.200;2023-07-08T14:09:54;36.00;7.40
652;DHT22;310;48.490;9.200;2023-07-08T14:12:23;36.20;7.30
652;DHT22;310;48.490;9.200;2023-07-08T14:14:48;35.60;8.90
652;DHT22;310;48.490;9.200;2023-07-08T14:17:21;35.80;8.50
652;DHT22;310;48.490;9.200;2023-07-08T14:19:48;35.40;10.30
652;DHT22;310;48.490;9.200;2023-07-08T14:24:42;35.80;9.00
652;DHT22;310;48.490;9.200;2023-07-08T14:27:09;35.90;9.80
652;DHT22;310;48.490;9.200;2023-07-08T14:29:40;36.20;9.80
652;DHT22;310;48.490;9.200;2023-07-08T14:32:15;36.30;8.40
652;DHT22;310;48.490;9.200;2023-07-08T14:34:42;36.20;7.70
652;DHT22;310;48.490;9.200;2023-07-08T14:37:14;36.20;9.10
652;DHT22;310;48.490;9.200;2023-07-08T14:39:40;36.10;9.40
652;DHT22;310;48.490;9.200;2023-07-08T14:42:10;36.40;8.30
652;DHT22;310;48.490;9.200;2023-07-08T14:44:37;36.70;8.30
652;DHT22;310;48.490;9.200;2023-07-08T14:47:09;36.80;8.10
652;DHT22;310;48.490;9.200;2023-07-08T14:49:35;36.80;8.00
652;DHT22;310;48.490;9.200;2023-07-08T14:52:00;36.80;8.60
652;DHT22;310;48.490;9.200;2023-07-08T14:54:26;36.40;9.10
652;DHT22;310;48.490;9.200;2023-07-08T14:56:54;36.60;8.70
652;DHT22;310;48.490;9.200;2023-07-08T14:59:23;36.60;7.80
652;DHT22;310;48.490;9.200;2023-07-08T15:01:50;36.80;8.30
652;DHT22;310;48.490;9.200;2023-07-08T15:04:17;36.80;7.80
652;DHT22;310;48.490;9.200;2023-07-08T15:06:44;36.60;10.20
652;DHT22;310;48.490;9.200;2023-07-08T15:09:10;36.40;9.00
652;DHT22;310;48.490;9.200;2023-07-08T15:11:37;36.50;8.60
652;DHT22;310;48.490;9.200;2023-07-08T15:14:06;37.00;8.00
652;DHT22;310;48.490;9.200;2023-07-08T15:16:34;37.00;8.00
652;DHT22;310;48.490;9.200;2023-07-08T15:19:00;37.10;8.00
652;DHT22;310;48.490;9.200;2023-07-08T15:21:26;37.30;8.00
652;DHT22;310;48.490;9.200;2023-07-08T15:23:52;37.40;7.60
652;DHT22;310;48.490;9.200;2023-07-08T15:26:17;37.20;7.30
652;DHT22;310;48.490;9.200;2023-07-08T15:28:46;36.70;6.80
652;DHT22;310;48.490;9.200;2023-07-08T15:31:17;35.20;8.30
652;DHT22;310;48.490;9.200;2023-07-08T15:33:44;34.70;9.60
652;DHT22;310;48.490;9.200;2023-07-08T15:36:13;35.30;9.50
652;DHT22;310;48.490;9.200;2023-07-08T15:38:42;35.90;9.80
652;DHT22;310;48.490;9.200;2023-07-08T15:41:26;36.30;8.70
652;DHT22;310;48.490;9.200;2023-07-08T15:43:53;36.40;9.00
652;DHT22;310;48.490;9.200;2023-07-08T15:46:20;36.10;9.00
652;DHT22;310;48.490;9.200;2023-07-08T15:48:46;36.20;9.90
652;DHT22;310;48.490;9.200;2023-07-08T15:51:15;35.90;10.00
652;DHT22;310;48.490;9.200;2023-07-08T15:53:41;36.10;10.10
652;DHT22;310;48.490;9.200;2023-07-08T15:56:12;36.00;10.50
652;DHT22;310;48.490;9.200;2023-07-08T15:58:40;35.50;8.70
652;DHT22;310;48.490;9.200;2023-07-08T16:01:16;35.40;10.20
652;DHT22;310;48.490;9.200;2023-07-08T16:03:42;35.50;11.40
652;DHT22;310;48.490;9.200;2023-07-08T16:06:08;35.90;8.40
652;DHT22;310;48.490;9.200;2023-07-08T16:08:34;36.10;8.70
652;DHT22;310;48.490;9.200;2023-07-08T16:11:05;35.90;8.90
652;DHT22;310;48.490;9.200;2023-07-08T16:13:37;35.90;9.20
652;DHT22;310;48.490;9.200;2023-07-08T16:16:03;35.80;9.50
652;DHT22;310;48.490;9.200;2023-07-08T16:18:29;36.00;9.10
652;DHT22;310;48.490;9.200;2023-07-08T16:20:55;36.10;8.30
652;DHT22;310;48.490;9.200;2023-07-08T16:23:21;35.90;10.50
652;DHT22;310;48.490;9.200;2023-07-08T16:25:51;35.80;10.60
652;DHT22;310;48.490;9.200;2023-07-08T16:28:38;36.20;8.80
652;DHT22;310;48.490;9.200;2023-07-08T16:31:16;36.40;9.00
652;DHT22;310;48.490;9.200;2023-07-08T16:33:42;36.50;9.00
652;DHT22;310;48.490;9.200;2023-07-08T16:36:17;36.60;7.80
652;DHT22;310;48.490;9.200;2023-07-08T16:38:44;36.60;9.50
652;DHT22;310;48.490;9.200;2023-07-08T16:41:18;36.30;8.40
652;DHT22;310;48.490;9.200;2023-07-08T16:43:44;36.30;9.40
652;DHT22;310;48.490;9.200;2023-07-08T16:46:12;35.90;8.90
652;DHT22;310;48.490;9.200;2023-07-08T16:48:38;35.80;9.30
652;DHT22;310;48.490;9.200;2023-07-08T16:51:14;35.90;9.70
652;DHT22;310;48.490;9.200;2023-07-08T16:53:41;35.60;10.20
652;DHT22;310;48.490;9.200;2023-07-08T16:56:12;35.50;9.60
652;DHT22;310;48.490;9.200;2023-07-08T16:58:38;35.80;9.40
652;DHT22;310;48.490;9.200;2023-07-08T17:01:05;35.70;10.20
652;DHT22;310;48.490;9.200;2023-07-08T17:03:34;35.20;10.20
652;DHT22;310;48.490;9.200;2023-07-08T17:05:59;35.00;11.50
652;DHT22;310;48.490;9.200;2023-07-08T17:08:25;35.20;10.50
652;DHT22;310;48.490;9.200;2023-07-08T17:10:51;35.10;10.40
652;DHT22;310;48.490;9.200;2023-07-08T17:13:16;34.70;10.50
652;DHT22;310;48.490;9.200;2023-07-08T17:15:42;35.00;10.00
652;DHT22;310;48.490;9.200;2023-07-08T17:18:16;35.20;10.90
652;DHT22;310;48.490;9.200;2023-07-08T17:20:48;35.20;10.20
652;DHT22;310;48.490;9.200;2023-07-08T17:23:16;35.20;9.80
652;DHT22;310;48.490;9.200;2023-07-08T17:25:42;35.20;10.20
652;DHT22;310;48.490;9.200;2023-07-08T17:28:10;34.60;11.50
652;DHT22;310;48.490;9.200;2023-07-08T17:30:35;34.40;12.50
652;DHT22;310;48.490;9.200;2023-07-08T17:33:02;34.00;12.60
652;DHT22;310;48.490;9.200;2023-07-08T17:35:27;34.10;12.40
652;DHT22;310;48.490;9.200;2023-07-08T17:37:53;34.10;12.80
652;DHT22;310;48.490;9.200;2023-07-08T17:40:24;34.00;13.30
652;DHT22;310;48.490;9.200;2023-07-08T17:42:52;34.00;13.50
652;DHT22;310;48.490;9.200;2023-07-08T17:45:20;33.90;13.60
652;DHT22;310;48.490;9.200;2023-07-08T17:47:47;33.80;12.80
652;DHT22;310;48.490;9.200;2023-07-08T17:50:21;33.80;12.80
652;DHT22;310;48.490;9.200;2023-07-08T17:52:48;33.70;13.10
652;DHT22;310;48.490;9.200;2023-07-08T17:55:14;33.60;13.40